Strona główna
METAR-TAF:

METAR-TAF

Lotnisko :

Danville, Kentucky, Stany Zjednoczone

Szerokość geograficzna: 37-34-40N, Długość geograficzna: 084-46-11W, wysokość: 312 m

Aktualna obserwacja pogody

Raport powstał 34 minut temu, godzina 04:50 UTC
Cisza
Temperatura 22°C
Wilgotność 88%
Ciśnienie 1014 hPa
Widzialność: 16.1 km
Rozproszone chmury na wysokości 4500 ft
Rozproszone chmury na wysokości 5000 ft
Rozproszone chmury na wysokości 7000 ft

METAR: KDVK 150450Z AUTO 00000KT 10SM SCT045 SCT050 SCT070 22/20 A2995 RMK AO2

czas: 01:24 (05:24 UTC)


TAF: brakujący

Obserwacja i prognoza pogody dla ponad 4000 lotnisk (raport METAR i TAF).

Dostępne stacje oznaczono żółtymi i czerwonymi punktami na mapie.

Najedź kursorem aby zobaczyć nazwę stacji.

Kliknij aby zobaczyć obserwacje i prognozy pogody.

Aby zmienić mapę: kliknij na zielony przycisk z czarnym krzyżykiem, aby powiększyć; na zielony przycisk z myślnikiem, aby pomniejszyć; na zielone strzałki, aby przejść do map sąsiednich.


METAR-TAF: